createdAt,value
2018-05-04T00:01:37.757Z,14.13
2018-05-04T00:04:05.900Z,13.50
2018-05-04T00:06:34.171Z,12.87
2018-05-04T00:09:02.422Z,13.60
2018-05-04T00:11:30.043Z,14.63
2018-05-04T00:13:57.527Z,11.93
2018-05-04T00:16:25.011Z,13.27
2018-05-04T00:18:53.288Z,13.50
2018-05-04T00:21:21.547Z,14.00
2018-05-04T00:23:49.139Z,13.37
2018-05-04T00:26:16.653Z,13.60
2018-05-04T00:28:44.176Z,12.57
2018-05-04T00:31:11.662Z,13.17
2018-05-04T00:33:39.159Z,12.40
2018-05-04T00:36:07.426Z,11.80
2018-05-04T00:38:35.711Z,11.40
2018-05-04T00:41:03.992Z,10.60
2018-05-04T00:43:31.483Z,11.63
2018-05-04T00:45:58.991Z,11.20
2018-05-04T00:48:27.268Z,9.93
2018-05-04T00:50:55.560Z,11.33
2018-05-04T00:53:23.045Z,10.50
2018-05-04T00:55:50.548Z,10.03
2018-05-04T00:58:18.833Z,10.00
2018-05-04T01:00:47.099Z,10.83
2018-05-04T01:03:15.376Z,10.23
2018-05-04T01:05:43.628Z,10.10
2018-05-04T01:08:11.213Z,10.60
2018-05-04T01:10:39.499Z,10.17
2018-05-04T01:13:07.056Z,10.73
2018-05-04T01:15:34.580Z,10.73
2018-05-04T01:18:02.166Z,10.90
2018-05-04T01:20:29.653Z,10.47
2018-05-04T01:22:57.197Z,10.00
2018-05-04T01:25:24.686Z,10.40
2018-05-04T01:27:52.178Z,10.60
2018-05-04T01:30:20.488Z,11.20
2018-05-04T01:32:47.976Z,11.30
2018-05-04T01:35:16.513Z,9.83
2018-05-04T01:37:44.014Z,10.23
2018-05-04T01:40:11.513Z,10.47
2018-05-04T01:42:39.799Z,10.00
2018-05-04T01:45:07.312Z,9.97
2018-05-04T01:47:34.815Z,10.00
2018-05-04T01:50:02.363Z,11.00
2018-05-04T01:52:29.923Z,9.37
2018-05-04T01:54:57.482Z,11.27
2018-05-04T01:57:25.031Z,10.10
2018-05-04T01:59:53.305Z,10.00
2018-05-04T02:02:21.564Z,11.03
2018-05-04T02:04:49.071Z,10.20
2018-05-04T02:07:16.566Z,10.83
2018-05-04T02:09:44.163Z,9.77
2018-05-04T02:12:11.714Z,10.33
2018-05-04T02:14:39.991Z,9.80
2018-05-04T02:17:07.556Z,9.50
2018-05-04T02:19:35.051Z,10.60
2018-05-04T02:22:02.545Z,11.80
2018-05-04T02:24:30.794Z,11.23
2018-05-04T02:26:58.396Z,10.70
2018-05-04T02:29:25.941Z,10.43
2018-05-04T02:31:54.333Z,10.37
2018-05-04T02:34:21.826Z,10.37
2018-05-04T02:36:49.330Z,10.67
2018-05-04T02:39:17.597Z,10.60
2018-05-04T02:41:45.883Z,10.70
2018-05-04T02:44:14.201Z,11.80
2018-05-04T02:46:41.708Z,11.10
2018-05-04T02:49:10.008Z,10.40
2018-05-04T02:51:37.512Z,10.80
2018-05-04T02:54:05.115Z,10.83
2018-05-04T02:56:32.619Z,12.20
2018-05-04T02:59:00.123Z,11.73
2018-05-04T03:01:28.404Z,10.80
2018-05-04T03:03:55.958Z,11.63
2018-05-04T03:06:24.226Z,11.27
2018-05-04T03:08:52.496Z,11.27
2018-05-04T03:11:20.762Z,11.10
2018-05-04T03:13:48.249Z,10.87
2018-05-04T03:16:15.759Z,10.90
2018-05-04T03:18:44.189Z,10.63
2018-05-04T03:21:11.726Z,10.47
2018-05-04T03:23:39.244Z,11.20
2018-05-04T03:26:06.741Z,11.17
2018-05-04T03:28:35.026Z,11.23
2018-05-04T03:31:02.550Z,11.57
2018-05-04T03:33:30.140Z,11.30
2018-05-04T03:35:57.653Z,11.87
2018-05-04T03:38:25.167Z,11.00
2018-05-04T03:40:52.660Z,11.93
2018-05-04T03:43:20.195Z,11.70
2018-05-04T03:45:47.712Z,11.70
2018-05-04T03:48:15.978Z,11.80
2018-05-04T03:50:44.272Z,13.57
2018-05-04T03:53:11.827Z,12.43
2018-05-04T03:55:39.356Z,12.60
2018-05-04T03:58:18.797Z,13.10
2018-05-04T04:00:58.268Z,12.53
2018-05-04T04:03:37.618Z,12.83
2018-05-04T04:06:05.124Z,12.90
2018-05-04T04:08:32.698Z,13.10
2018-05-04T04:11:00.999Z,13.13
2018-05-04T04:13:28.502Z,14.10
2018-05-04T04:15:56.096Z,14.10
2018-05-04T04:18:23.605Z,16.67
2018-05-04T04:20:51.098Z,14.97
2018-05-04T04:23:19.388Z,15.77
2018-05-04T04:25:46.915Z,15.60
2018-05-04T04:28:15.194Z,15.93
2018-05-04T04:30:43.458Z,15.00
2018-05-04T04:33:11.032Z,16.60
2018-05-04T04:35:39.304Z,15.50
2018-05-04T04:38:07.582Z,16.70
2018-05-04T04:40:35.877Z,16.10
2018-05-04T04:43:03.433Z,15.73
2018-05-04T04:45:31.004Z,15.57
2018-05-04T04:47:58.501Z,15.50
2018-05-04T04:50:26.001Z,15.17
2018-05-04T04:52:53.549Z,15.67
2018-05-04T04:55:22.318Z,16.13
2018-05-04T04:57:49.889Z,16.70
2018-05-04T05:00:18.160Z,15.23
2018-05-04T05:02:46.419Z,17.37
2018-05-04T05:05:13.929Z,17.00
2018-05-04T05:07:41.469Z,15.60
2018-05-04T05:10:09.023Z,17.70
2018-05-04T05:12:36.506Z,15.97
2018-05-04T05:15:03.998Z,15.50
2018-05-04T05:17:31.594Z,16.87
2018-05-04T05:19:59.094Z,16.60
2018-05-04T05:22:26.620Z,15.60
2018-05-04T05:24:54.163Z,15.27
2018-05-04T05:27:21.723Z,15.63
2018-05-04T05:29:49.280Z,15.87
2018-05-04T05:32:16.785Z,17.07
2018-05-04T05:34:44.300Z,16.63
2018-05-04T05:37:11.869Z,16.83
2018-05-04T05:39:40.233Z,17.33
2018-05-04T05:42:07.739Z,17.97
2018-05-04T05:44:35.250Z,17.47
2018-05-04T05:47:02.734Z,16.57
2018-05-04T05:49:30.247Z,16.87
2018-05-04T05:51:58.596Z,16.80
2018-05-04T05:54:26.807Z,16.50
2018-05-04T05:56:54.302Z,16.50
2018-05-04T05:59:21.815Z,15.40
2018-05-04T06:01:49.346Z,16.77
2018-05-04T06:04:16.848Z,18.33
2018-05-04T06:06:44.338Z,15.60
2018-05-04T06:09:11.863Z,15.57
2018-05-04T06:11:39.360Z,16.30
2018-05-04T06:14:06.855Z,17.07
2018-05-04T06:16:35.136Z,15.73
2018-05-04T06:19:02.639Z,16.93
2018-05-04T06:21:30.267Z,17.47
2018-05-04T06:23:57.803Z,16.57
2018-05-04T06:26:25.306Z,17.13
2018-05-04T06:28:52.803Z,17.33
2018-05-04T06:31:21.092Z,15.87
2018-05-04T06:33:48.636Z,16.00
2018-05-04T06:36:16.139Z,16.20
2018-05-04T06:38:43.643Z,16.43
2018-05-04T06:41:11.907Z,16.20
2018-05-04T06:43:39.410Z,16.10
2018-05-04T06:46:06.956Z,15.73
2018-05-04T06:48:35.264Z,16.70
2018-05-04T06:51:02.794Z,17.73
2018-05-04T06:53:30.304Z,15.03
2018-05-04T06:55:57.814Z,16.30
2018-05-04T06:58:25.384Z,17.10
2018-05-04T07:00:52.912Z,16.30
2018-05-04T07:03:20.432Z,17.73
2018-05-04T07:05:47.955Z,17.03
2018-05-04T07:08:15.450Z,16.80
2018-05-04T07:10:42.968Z,16.73
2018-05-04T07:13:10.466Z,16.07
2018-05-04T07:15:37.984Z,16.43
2018-05-04T07:18:05.508Z,16.43
2018-05-04T07:20:33.083Z,17.10
2018-05-04T07:23:00.611Z,17.00
2018-05-04T07:25:28.891Z,17.27
2018-05-04T07:27:57.146Z,15.93
2018-05-04T07:30:24.736Z,16.70
2018-05-04T07:32:52.238Z,16.83
2018-05-04T07:35:19.847Z,16.97
2018-05-04T07:37:49.033Z,16.77
2018-05-04T07:40:17.288Z,16.17
2018-05-04T07:42:44.812Z,15.80
2018-05-04T07:45:12.302Z,15.60
2018-05-04T07:47:39.815Z,16.47
2018-05-04T07:50:07.338Z,16.97
2018-05-04T07:52:35.589Z,16.80
2018-05-04T07:55:03.114Z,16.43
2018-05-04T07:57:30.602Z,18.40
2018-05-04T07:59:58.097Z,16.37
2018-05-04T08:02:25.595Z,13.80
2018-05-04T08:04:53.208Z,11.97
2018-05-04T08:07:20.716Z,14.43
2018-05-04T08:09:48.213Z,12.80
2018-05-04T08:12:16.471Z,12.53
2018-05-04T08:14:44.749Z,13.00
2018-05-04T08:17:13.029Z,12.43
2018-05-04T08:19:41.315Z,11.83
2018-05-04T08:22:08.874Z,14.47
2018-05-04T08:24:36.380Z,13.47
2018-05-04T08:27:04.008Z,14.70
2018-05-04T08:29:31.519Z,11.77
2018-05-04T08:31:59.019Z,13.13
2018-05-04T08:34:26.522Z,13.03
2018-05-04T08:36:54.035Z,13.43
2018-05-04T08:39:21.533Z,13.10
2018-05-04T08:41:49.156Z,12.50
2018-05-04T08:44:16.792Z,14.97
2018-05-04T08:46:44.294Z,16.50
2018-05-04T08:49:11.812Z,16.60
2018-05-04T08:51:39.309Z,15.50
2018-05-04T08:54:06.914Z,13.33
2018-05-04T08:56:35.195Z,13.87
2018-05-04T08:59:02.700Z,14.53
2018-05-04T09:01:30.199Z,17.30
2018-05-04T09:03:58.471Z,17.87
2018-05-04T09:06:26.755Z,19.23
2018-05-04T09:08:54.256Z,18.97
2018-05-04T09:11:21.764Z,19.53
2018-05-04T09:13:50.043Z,19.37
2018-05-04T09:16:17.663Z,20.50
2018-05-04T09:18:45.105Z,22.10
2018-05-04T09:21:12.703Z,21.17
2018-05-04T09:23:40.953Z,20.13
2018-05-04T09:26:08.543Z,23.00
2018-05-04T09:28:36.826Z,24.63
2018-05-04T09:31:04.360Z,22.53
2018-05-04T09:33:31.820Z,22.80
2018-05-04T09:36:00.097Z,21.30
2018-05-04T09:38:28.394Z,23.13
2018-05-04T09:40:55.895Z,21.93
2018-05-04T09:43:23.421Z,25.53
2018-05-04T09:45:50.921Z,25.07
2018-05-04T09:48:18.619Z,23.10
2018-05-04T09:50:46.137Z,23.50
2018-05-04T09:53:13.636Z,25.23
2018-05-04T09:55:41.138Z,26.30
2018-05-04T09:58:08.741Z,25.40
2018-05-04T10:00:37.011Z,24.97
2018-05-04T10:03:05.287Z,25.53
2018-05-04T10:05:33.572Z,25.90
2018-05-04T10:08:01.095Z,25.30
2018-05-04T10:10:28.595Z,25.50
2018-05-04T10:12:56.104Z,26.10
2018-05-04T10:15:23.730Z,25.70
2018-05-04T10:17:51.276Z,27.00
2018-05-04T10:20:18.778Z,26.00
2018-05-04T10:22:46.278Z,25.33
2018-05-04T10:25:13.758Z,25.60
2018-05-04T10:27:41.265Z,23.97
2018-05-04T10:30:09.544Z,25.47
2018-05-04T10:32:37.826Z,26.43
2018-05-04T10:35:06.100Z,26.20
2018-05-04T10:37:34.349Z,25.00
2018-05-04T10:40:01.929Z,24.10
2018-05-04T10:42:30.181Z,24.50
2018-05-04T10:44:57.689Z,23.87
2018-05-04T10:47:25.176Z,25.90
2018-05-04T10:49:52.661Z,24.47
2018-05-04T10:52:20.937Z,24.43
2018-05-04T10:54:49.189Z,24.50
2018-05-04T10:57:16.713Z,25.27
2018-05-04T10:59:44.190Z,23.53
2018-05-04T11:02:11.699Z,24.00
2018-05-04T11:04:39.960Z,24.43
2018-05-04T11:07:08.226Z,25.47
2018-05-04T11:09:35.738Z,24.97
2018-05-04T11:12:03.337Z,23.80
2018-05-04T11:14:30.790Z,22.70
2018-05-04T11:16:58.271Z,23.13
2018-05-04T11:19:26.581Z,25.00
2018-05-04T11:21:54.093Z,24.13
2018-05-04T11:24:22.355Z,23.83
2018-05-04T11:26:50.715Z,22.10
2018-05-04T11:29:18.214Z,23.27
2018-05-04T11:31:46.474Z,21.80
2018-05-04T11:34:14.764Z,22.57
2018-05-04T11:36:42.318Z,21.90
2018-05-04T11:39:10.577Z,20.47
2018-05-04T11:41:38.858Z,20.40
2018-05-04T11:44:07.113Z,20.67
2018-05-04T11:46:34.649Z,22.23
2018-05-04T11:49:02.151Z,20.07
2018-05-04T11:51:30.529Z,21.10
2018-05-04T11:53:58.958Z,20.50
2018-05-04T11:56:26.525Z,20.33
2018-05-04T11:58:54.163Z,20.47
2018-05-04T12:01:21.691Z,22.77
2018-05-04T12:03:49.183Z,20.87
2018-05-04T12:06:16.695Z,21.27
2018-05-04T12:08:44.983Z,21.33
2018-05-04T12:11:12.541Z,24.10
2018-05-04T12:13:40.075Z,22.77
2018-05-04T12:16:08.346Z,24.00
2018-05-04T12:18:36.604Z,21.77
2018-05-04T12:21:04.195Z,23.57
2018-05-04T12:23:31.704Z,23.60
2018-05-04T12:25:59.194Z,22.97
2018-05-04T12:28:27.486Z,22.00
2018-05-04T12:30:54.974Z,20.60
2018-05-04T12:33:22.478Z,21.87
2018-05-04T12:35:50.064Z,22.60
2018-05-04T12:38:17.623Z,22.63
2018-05-04T12:40:45.170Z,24.30
2018-05-04T12:43:13.442Z,22.73
2018-05-04T12:45:41.826Z,23.90
2018-05-04T12:48:09.323Z,25.20
2018-05-04T12:50:36.938Z,25.60
2018-05-04T12:53:05.291Z,24.40
2018-05-04T12:55:32.728Z,25.97
2018-05-04T12:58:00.229Z,26.20
2018-05-04T13:00:27.740Z,26.10
2018-05-04T13:02:55.237Z,25.87
2018-05-04T13:05:23.504Z,24.40
2018-05-04T13:07:51.774Z,24.53
2018-05-04T13:10:20.068Z,25.50
2018-05-04T13:12:47.583Z,24.90
2018-05-04T13:15:15.084Z,25.47
2018-05-04T13:17:42.607Z,23.83
2018-05-04T13:20:10.207Z,23.80
2018-05-04T13:22:37.723Z,24.37
2018-05-04T13:25:05.240Z,23.60
2018-05-04T13:27:32.747Z,23.20
2018-05-04T13:30:02.024Z,22.50
2018-05-04T13:32:29.528Z,22.10
2018-05-04T13:34:57.040Z,23.80
2018-05-04T13:37:24.539Z,21.00
2018-05-04T13:39:52.092Z,23.00
2018-05-04T13:42:19.660Z,22.70
2018-05-04T13:44:47.220Z,22.30
2018-05-04T13:47:14.709Z,27.33
2018-05-04T13:49:42.205Z,22.47
2018-05-04T13:52:10.494Z,22.73
2018-05-04T13:54:38.074Z,21.13
2018-05-04T13:57:05.576Z,21.97
2018-05-04T13:59:33.073Z,22.10
2018-05-04T14:02:00.586Z,25.57
2018-05-04T14:04:28.105Z,24.23
2018-05-04T14:06:55.623Z,24.20
2018-05-04T14:09:23.884Z,24.10
2018-05-04T14:11:51.386Z,23.60
2018-05-04T14:14:18.919Z,23.90
2018-05-04T14:16:47.218Z,23.60
2018-05-04T14:19:14.711Z,23.50
2018-05-04T14:21:42.217Z,23.40
2018-05-04T14:24:09.730Z,22.53
2018-05-04T14:26:37.263Z,22.60
2018-05-04T14:29:04.770Z,23.77
2018-05-04T14:31:33.032Z,23.90
2018-05-04T14:34:00.532Z,23.23
2018-05-04T14:36:28.051Z,22.67
2018-05-04T14:38:56.338Z,24.80
2018-05-04T14:41:24.604Z,22.93
2018-05-04T14:43:52.862Z,23.03
2018-05-04T14:46:20.377Z,23.70
2018-05-04T14:48:47.912Z,24.00
2018-05-04T14:51:15.464Z,22.93
2018-05-04T14:53:42.998Z,34.90
2018-05-04T14:56:10.485Z,24.37
2018-05-04T14:58:38.122Z,25.20
2018-05-04T15:01:05.584Z,24.53
2018-05-04T15:03:33.874Z,23.90
2018-05-04T15:06:01.380Z,25.27
2018-05-04T15:08:28.900Z,24.80
2018-05-04T15:10:56.386Z,24.60
2018-05-04T15:13:23.898Z,23.53
2018-05-04T15:15:51.394Z,24.53
2018-05-04T15:18:18.913Z,23.77
2018-05-04T15:20:46.423Z,24.80
2018-05-04T15:23:13.914Z,24.13
2018-05-04T15:25:42.214Z,23.70
2018-05-04T15:28:09.714Z,25.00
2018-05-04T15:30:37.307Z,24.30
2018-05-04T15:33:04.874Z,24.00
2018-05-04T15:35:32.418Z,23.83
2018-05-04T15:38:00.703Z,24.20
2018-05-04T15:40:28.294Z,24.47
2018-05-04T15:42:56.554Z,22.57
2018-05-04T15:45:24.044Z,22.10
2018-05-04T15:47:51.561Z,23.20
2018-05-04T15:50:24.822Z,22.53
2018-05-04T15:52:53.133Z,22.50
2018-05-04T15:55:20.632Z,21.53
2018-05-04T15:57:48.219Z,22.10
2018-05-04T16:00:16.614Z,22.83
2018-05-04T16:02:44.125Z,21.03
2018-05-04T16:05:11.690Z,21.63
2018-05-04T16:07:39.971Z,19.50
2018-05-04T16:10:07.553Z,20.80
2018-05-04T16:12:35.146Z,19.73
2018-05-04T16:15:02.647Z,20.27
2018-05-04T16:17:30.926Z,19.70
2018-05-04T16:19:59.216Z,19.50
2018-05-04T16:22:26.895Z,18.70
2018-05-04T16:24:54.418Z,18.37
2018-05-04T16:27:22.695Z,18.53
2018-05-04T16:29:51.029Z,19.03
2018-05-04T16:32:18.557Z,18.67
2018-05-04T16:34:46.054Z,18.67
2018-05-04T16:37:13.572Z,18.63
2018-05-04T16:39:41.104Z,17.13
2018-05-04T16:42:09.361Z,17.23
2018-05-04T16:44:36.860Z,17.63
2018-05-04T16:47:10.129Z,17.20
2018-05-04T16:49:38.418Z,17.00
2018-05-04T16:52:05.937Z,17.20
2018-05-04T16:54:33.438Z,17.90
2018-05-04T16:57:00.940Z,18.27
2018-05-04T16:59:28.451Z,19.03
2018-05-04T17:01:55.957Z,19.90
2018-05-04T17:04:23.475Z,17.90
2018-05-04T17:06:50.958Z,19.10
2018-05-04T17:09:18.453Z,19.60
2018-05-04T17:11:46.752Z,20.47
2018-05-04T17:14:14.259Z,19.03
2018-05-04T17:16:41.752Z,20.60
2018-05-04T17:19:09.250Z,19.73
2018-05-04T17:21:36.740Z,18.10
2018-05-04T17:24:05.044Z,20.53
2018-05-04T17:26:32.553Z,18.90
2018-05-04T17:29:00.626Z,18.90
2018-05-04T17:31:28.138Z,17.43
2018-05-04T17:33:55.678Z,18.47
2018-05-04T17:36:23.166Z,19.67
2018-05-04T17:38:50.686Z,19.27
2018-05-04T17:41:18.218Z,20.03
2018-05-04T17:43:46.513Z,19.60
2018-05-04T17:46:14.810Z,19.73
2018-05-04T17:48:42.301Z,19.47
2018-05-04T17:51:09.810Z,21.10
2018-05-04T17:53:37.297Z,20.00
2018-05-04T17:56:04.809Z,21.57
2018-05-04T17:58:33.070Z,19.67
2018-05-04T18:01:00.669Z,20.20
2018-05-04T18:03:28.213Z,19.73
2018-05-04T18:05:55.752Z,19.67
2018-05-04T18:08:24.064Z,20.03
2018-05-04T18:10:51.559Z,19.70
2018-05-04T18:13:19.076Z,19.67
2018-05-04T18:15:46.566Z,20.70
2018-05-04T18:18:14.075Z,21.10
2018-05-04T18:20:41.611Z,20.97
2018-05-04T18:23:09.546Z,21.50
2018-05-04T18:25:37.056Z,23.53
2018-05-04T18:28:04.566Z,21.60
2018-05-04T18:30:32.070Z,22.47
2018-05-04T18:32:59.657Z,21.80
2018-05-04T18:35:27.228Z,23.60
2018-05-04T18:37:54.853Z,24.07
2018-05-04T18:40:22.359Z,22.77
2018-05-04T18:42:49.978Z,23.00
2018-05-04T18:45:17.616Z,22.50
2018-05-04T18:47:45.873Z,22.17
2018-05-04T18:50:14.128Z,22.50
2018-05-04T18:52:41.641Z,24.53
2018-05-04T18:55:09.144Z,22.53
2018-05-04T18:57:36.648Z,24.40
2018-05-04T19:00:04.167Z,24.67
2018-05-04T19:02:37.246Z,22.70
2018-05-04T19:05:04.742Z,20.93
2018-05-04T19:07:32.258Z,25.03
2018-05-04T19:09:59.754Z,22.63
2018-05-04T19:12:27.301Z,23.97
2018-05-04T19:14:55.563Z,23.37
2018-05-04T19:17:23.857Z,24.53
2018-05-04T19:19:51.352Z,24.73
2018-05-04T19:22:18.879Z,23.83
2018-05-04T19:24:46.395Z,22.70
2018-05-04T19:27:13.983Z,24.67
2018-05-04T19:29:41.500Z,25.13
2018-05-04T19:32:09.001Z,23.30
2018-05-04T19:34:36.523Z,25.13
2018-05-04T19:37:04.012Z,24.90
2018-05-04T19:39:31.727Z,23.47
2018-05-04T19:41:59.365Z,23.60
2018-05-04T19:44:26.926Z,24.73
2018-05-04T19:46:55.225Z,25.17
2018-05-04T19:49:22.769Z,25.37
2018-05-04T19:51:50.272Z,23.97
2018-05-04T19:54:18.539Z,25.43
2018-05-04T19:56:46.845Z,24.47
2018-05-04T19:59:14.361Z,24.50
2018-05-04T20:01:41.899Z,24.63
2018-05-04T20:04:09.409Z,24.23
2018-05-04T20:06:36.914Z,26.03
2018-05-04T20:09:05.613Z,25.60
2018-05-04T20:11:33.123Z,25.20
2018-05-04T20:14:00.642Z,26.57
2018-05-04T20:16:28.905Z,26.17
2018-05-04T20:18:56.526Z,25.17
2018-05-04T20:21:24.014Z,26.50
2018-05-04T20:23:51.534Z,26.13
2018-05-04T20:26:19.055Z,26.10
2018-05-04T20:28:46.608Z,26.90
2018-05-04T20:31:14.932Z,25.70
2018-05-04T20:33:42.557Z,26.40
2018-05-04T20:36:10.042Z,27.37
2018-05-04T20:38:37.550Z,26.00
2018-05-04T20:41:05.137Z,27.87
2018-05-04T20:43:32.679Z,28.70
2018-05-04T20:46:00.179Z,27.30
2018-05-04T20:48:27.777Z,25.73
2018-05-04T20:50:56.058Z,26.87
2018-05-04T20:53:24.323Z,28.50
2018-05-04T20:55:52.592Z,27.47
2018-05-04T20:58:20.083Z,28.10
2018-05-04T21:00:47.582Z,26.70
2018-05-04T21:03:15.082Z,28.30
2018-05-04T21:05:43.454Z,28.80
2018-05-04T21:08:11.786Z,27.27
2018-05-04T21:10:39.400Z,26.70
2018-05-04T21:13:06.912Z,27.40
2018-05-04T21:15:34.412Z,25.70
2018-05-04T21:18:01.945Z,30.60
2018-05-04T21:20:29.449Z,27.60
2018-05-04T21:22:57.727Z,28.60
2018-05-04T21:25:25.235Z,27.37
2018-05-04T21:27:53.531Z,28.23
2018-05-04T21:30:21.037Z,28.03
2018-05-04T21:32:48.704Z,27.80
2018-05-04T21:35:16.324Z,29.13
2018-05-04T21:37:43.828Z,28.53
2018-05-04T21:40:11.352Z,29.67
2018-05-04T21:42:38.842Z,28.70
2018-05-04T21:45:06.334Z,28.83
2018-05-04T21:47:33.882Z,27.43
2018-05-04T21:50:02.160Z,28.47
2018-05-04T21:52:29.648Z,30.30
2018-05-04T21:54:57.154Z,28.53
2018-05-04T21:57:25.442Z,27.90
2018-05-04T21:59:53.727Z,29.30
2018-05-04T22:02:21.247Z,30.30
2018-05-04T22:04:48.837Z,27.67
2018-05-04T22:07:16.275Z,30.37
2018-05-04T22:09:44.546Z,30.63
2018-05-04T22:12:12.865Z,28.10
2018-05-04T22:14:40.404Z,29.70
2018-05-04T22:17:07.890Z,31.87
2018-05-04T22:19:35.429Z,30.07
2018-05-04T22:22:02.933Z,32.23
2018-05-04T22:24:30.433Z,29.70
2018-05-04T22:26:57.964Z,29.93
2018-05-04T22:29:26.233Z,30.00
2018-05-04T22:31:53.750Z,30.03
2018-05-04T22:34:21.255Z,33.03
2018-05-04T22:36:49.518Z,30.90
2018-05-04T22:39:17.126Z,33.80
2018-05-04T22:41:44.667Z,31.30
2018-05-04T22:44:12.235Z,32.73
2018-05-04T22:46:39.795Z,31.23
2018-05-04T22:49:07.344Z,32.83
2018-05-04T22:51:34.834Z,32.13
2018-05-04T22:54:02.332Z,33.70
2018-05-04T22:56:30.627Z,31.97
2018-05-04T22:58:58.146Z,32.93
2018-05-04T23:01:25.661Z,32.57
2018-05-04T23:03:53.172Z,33.03
2018-05-04T23:06:20.733Z,31.30
2018-05-04T23:08:48.995Z,31.23
2018-05-04T23:11:16.517Z,32.93
2018-05-04T23:13:44.020Z,32.90
2018-05-04T23:16:12.275Z,34.17
2018-05-04T23:18:39.785Z,32.23
2018-05-04T23:21:07.289Z,31.50
2018-05-04T23:23:34.800Z,33.87
2018-05-04T23:26:02.316Z,31.90
2018-05-04T23:28:29.859Z,33.43
2018-05-04T23:30:57.349Z,32.63
2018-05-04T23:33:25.620Z,33.73
2018-05-04T23:35:53.882Z,32.23
2018-05-04T23:38:21.365Z,33.43
2018-05-04T23:40:48.885Z,32.80
2018-05-04T23:43:16.476Z,33.60
2018-05-04T23:45:44.038Z,33.13
2018-05-04T23:48:11.597Z,31.07
2018-05-04T23:50:39.137Z,30.97
2018-05-04T23:53:06.655Z,30.93
2018-05-04T23:55:34.149Z,31.00
2018-05-04T23:58:02.443Z,29.17
